createdAt,value
2023-01-05T00:00:51.844Z,59.00
2023-01-05T00:03:18.504Z,59.00
2023-01-05T00:05:45.109Z,59.00
2023-01-05T00:08:12.234Z,59.00
2023-01-05T00:10:57.719Z,59.00
2023-01-05T00:13:47.532Z,59.10
2023-01-05T00:16:33.017Z,59.70
2023-01-05T00:19:18.298Z,59.10
2023-01-05T00:22:03.648Z,59.10
2023-01-05T00:24:30.355Z,59.00
2023-01-05T00:26:56.960Z,59.10
2023-01-05T00:29:23.593Z,59.00
2023-01-05T00:31:50.220Z,59.10
2023-01-05T00:34:16.835Z,59.10
2023-01-05T00:36:43.429Z,59.10
2023-01-05T00:39:10.012Z,59.10
2023-01-05T00:41:36.609Z,59.10
2023-01-05T00:44:03.202Z,59.20
2023-01-05T00:46:29.807Z,59.10
2023-01-05T00:48:56.468Z,59.20
2023-01-05T00:51:23.080Z,59.20
2023-01-05T00:53:49.700Z,59.20
2023-01-05T00:56:16.307Z,59.20
2023-01-05T00:58:42.902Z,59.20
2023-01-05T01:01:12.863Z,59.20
2023-01-05T01:03:39.749Z,59.20
2023-01-05T01:06:06.542Z,59.20
2023-01-05T01:08:33.182Z,59.20
2023-01-05T01:11:06.835Z,59.20
2023-01-05T01:13:33.438Z,59.20
2023-01-05T01:16:06.804Z,59.20
2023-01-05T01:18:33.477Z,59.20
2023-01-05T01:21:00.102Z,59.20
2023-01-05T01:23:27.021Z,59.20
2023-01-05T01:25:53.663Z,59.10
2023-01-05T01:28:20.275Z,59.20
2023-01-05T01:30:46.858Z,59.10
2023-01-05T01:33:13.471Z,59.20
2023-01-05T01:35:40.055Z,59.20
2023-01-05T01:38:06.649Z,59.20
2023-01-05T01:40:41.485Z,59.20
2023-01-05T01:43:19.178Z,59.20
2023-01-05T01:45:45.822Z,59.30
2023-01-05T01:48:14.561Z,59.20
2023-01-05T01:50:43.888Z,59.30
2023-01-05T01:53:31.770Z,59.30
2023-01-05T01:56:00.367Z,59.20
2023-01-05T01:58:27.752Z,59.30
2023-01-05T02:00:54.480Z,59.20
2023-01-05T02:03:21.122Z,59.20
2023-01-05T02:05:47.724Z,59.20
2023-01-05T02:08:15.350Z,59.20
2023-01-05T02:11:05.794Z,59.30
2023-01-05T02:13:54.016Z,59.20
2023-01-05T02:16:37.621Z,59.20
2023-01-05T02:19:44.554Z,59.20
2023-01-05T02:22:44.796Z,59.20
2023-01-05T02:25:43.721Z,59.20
2023-01-05T02:28:28.791Z,59.20
2023-01-05T02:31:08.764Z,59.20
2023-01-05T02:34:07.401Z,59.20
2023-01-05T02:36:40.398Z,59.20
2023-01-05T02:39:28.223Z,59.30
2023-01-05T02:42:22.675Z,59.20
2023-01-05T02:44:49.502Z,59.30
2023-01-05T02:47:25.121Z,59.30
2023-01-05T02:49:52.753Z,59.30
2023-01-05T02:52:19.407Z,59.30
2023-01-05T02:54:51.798Z,59.30
2023-01-05T02:57:20.377Z,59.20
2023-01-05T02:59:53.348Z,59.20
2023-01-05T03:02:22.393Z,59.20
2023-01-05T03:04:51.238Z,59.30
2023-01-05T03:07:21.764Z,59.30
2023-01-05T03:09:48.362Z,59.30
2023-01-05T03:12:51.609Z,59.30
2023-01-05T03:15:26.767Z,59.30
2023-01-05T03:17:58.999Z,59.30
2023-01-05T03:20:29.678Z,59.40
2023-01-05T03:23:15.306Z,59.40
2023-01-05T03:26:00.389Z,59.30
2023-01-05T03:28:49.083Z,59.40
2023-01-05T03:31:38.807Z,59.40
2023-01-05T03:34:50.807Z,59.40
2023-01-05T03:37:18.906Z,59.40
2023-01-05T03:39:46.089Z,59.40
2023-01-05T03:42:14.131Z,59.40
2023-01-05T03:44:41.838Z,59.40
2023-01-05T03:47:08.453Z,59.40
2023-01-05T03:49:35.086Z,59.40
2023-01-05T03:52:01.707Z,59.40
2023-01-05T03:54:28.303Z,59.40
2023-01-05T03:56:54.893Z,59.40
2023-01-05T03:59:21.498Z,59.40
2023-01-05T04:01:48.174Z,59.30
2023-01-05T04:04:14.842Z,59.40
2023-01-05T04:06:41.435Z,59.40
2023-01-05T04:09:08.044Z,59.30
2023-01-05T04:11:34.648Z,59.40
2023-01-05T04:14:01.479Z,59.40
2023-01-05T04:16:28.776Z,59.30
2023-01-05T04:18:55.503Z,59.40
2023-01-05T04:21:22.134Z,59.30
2023-01-05T04:23:48.773Z,59.30
2023-01-05T04:26:15.373Z,59.30
2023-01-05T04:28:41.986Z,59.30
2023-01-05T04:31:08.627Z,59.30
2023-01-05T04:33:36.324Z,59.40
2023-01-05T04:36:02.950Z,59.40
2023-01-05T04:38:29.541Z,59.40
2023-01-05T04:40:56.156Z,59.40
2023-01-05T04:43:23.075Z,59.40
2023-01-05T04:45:49.806Z,59.40
2023-01-05T04:48:16.450Z,59.30
2023-01-05T04:50:43.270Z,59.30
2023-01-05T04:53:10.055Z,59.30
2023-01-05T04:55:36.674Z,59.30
2023-01-05T04:58:08.315Z,59.30
2023-01-05T05:00:38.244Z,59.40
2023-01-05T05:03:04.921Z,59.30
2023-01-05T05:05:31.741Z,59.30
2023-01-05T05:07:58.374Z,59.30
2023-01-05T05:10:25.000Z,59.30
2023-01-05T05:12:51.592Z,59.30
2023-01-05T05:15:18.312Z,59.30
2023-01-05T05:17:44.922Z,59.30
2023-01-05T05:20:12.050Z,59.30
2023-01-05T05:22:38.662Z,59.30
2023-01-05T05:25:05.838Z,59.30
2023-01-05T05:27:32.421Z,59.30
2023-01-05T05:29:59.017Z,59.30
2023-01-05T05:32:25.615Z,59.30
2023-01-05T05:34:52.209Z,59.30
2023-01-05T05:37:18.789Z,59.30
2023-01-05T05:39:45.418Z,59.30
2023-01-05T05:42:12.144Z,59.30
2023-01-05T05:44:39.341Z,60.00
2023-01-05T05:47:06.004Z,59.30
2023-01-05T05:49:32.646Z,59.40
2023-01-05T05:51:59.284Z,59.30
2023-01-05T05:54:25.887Z,59.30
2023-01-05T05:56:52.518Z,59.30
2023-01-05T05:59:19.191Z,59.30
2023-01-05T06:01:45.883Z,59.30
2023-01-05T06:04:12.644Z,59.30
2023-01-05T06:06:39.820Z,60.00
2023-01-05T06:09:06.573Z,59.30
2023-01-05T06:11:33.424Z,59.30
2023-01-05T06:14:00.181Z,59.30
2023-01-05T06:16:26.847Z,59.30
2023-01-05T06:18:53.469Z,59.30
2023-01-05T06:21:21.401Z,59.40
2023-01-05T06:23:48.179Z,59.30
2023-01-05T06:26:14.814Z,59.40
2023-01-05T06:28:41.411Z,59.40
2023-01-05T06:31:08.091Z,59.40
2023-01-05T06:33:34.711Z,59.40
2023-01-05T06:36:01.365Z,59.40
2023-01-05T06:38:28.057Z,59.40
2023-01-05T06:40:54.750Z,59.40
2023-01-05T06:43:21.495Z,59.50
2023-01-05T06:45:48.215Z,59.50
2023-01-05T06:48:14.837Z,59.50
2023-01-05T06:50:41.468Z,59.50
2023-01-05T06:53:08.093Z,59.50
2023-01-05T06:55:34.703Z,59.60
2023-01-05T06:58:01.577Z,59.60
2023-01-05T07:00:28.552Z,59.50
2023-01-05T07:02:55.208Z,59.60
2023-01-05T07:05:23.205Z,59.60
2023-01-05T07:07:50.136Z,59.50
2023-01-05T07:10:16.806Z,59.50
2023-01-05T07:12:43.401Z,59.20
2023-01-05T07:15:10.302Z,58.40
2023-01-05T07:17:36.907Z,58.00
2023-01-05T07:20:05.042Z,58.10
2023-01-05T07:22:31.731Z,58.30
2023-01-05T07:24:58.857Z,58.40
2023-01-05T07:27:25.477Z,58.60
2023-01-05T07:29:52.075Z,58.50
2023-01-05T07:32:18.819Z,58.50
2023-01-05T07:34:54.970Z,58.40
2023-01-05T07:37:24.511Z,58.30
2023-01-05T07:39:51.209Z,58.50
2023-01-05T07:42:17.806Z,58.40
2023-01-05T07:44:45.251Z,58.50
2023-01-05T07:47:11.972Z,58.30
2023-01-05T07:49:38.645Z,58.40
2023-01-05T07:52:05.256Z,58.40
2023-01-05T07:54:31.843Z,58.20
2023-01-05T07:56:58.463Z,58.30
2023-01-05T07:59:25.109Z,58.40
2023-01-05T08:01:51.824Z,58.70
2023-01-05T08:04:18.485Z,58.60
2023-01-05T08:06:45.116Z,58.60
2023-01-05T08:09:30.002Z,58.50
2023-01-05T08:11:56.608Z,58.50
2023-01-05T08:14:23.198Z,58.60
2023-01-05T08:16:49.975Z,58.70
2023-01-05T08:19:16.611Z,59.00
2023-01-05T08:21:43.210Z,58.60
2023-01-05T08:24:09.805Z,58.30
2023-01-05T08:26:36.458Z,58.50
2023-01-05T08:29:03.123Z,58.60
2023-01-05T08:31:30.602Z,58.70
2023-01-05T08:33:59.727Z,58.70
2023-01-05T08:36:26.641Z,59.00
2023-01-05T08:38:53.780Z,59.00
2023-01-05T08:41:22.513Z,59.00
2023-01-05T08:43:53.023Z,59.10
2023-01-05T08:46:20.633Z,59.10
2023-01-05T08:48:51.191Z,59.10
2023-01-05T08:51:17.939Z,59.20
2023-01-05T08:53:44.640Z,59.20
2023-01-05T08:56:11.320Z,59.20
2023-01-05T08:58:38.564Z,59.20
2023-01-05T09:01:09.301Z,59.30
2023-01-05T09:03:36.027Z,59.20
2023-01-05T09:06:03.428Z,59.40
2023-01-05T09:08:30.910Z,59.30
2023-01-05T09:11:06.958Z,59.60
2023-01-05T09:13:33.812Z,59.60
2023-01-05T09:16:11.217Z,59.80
2023-01-05T09:18:38.349Z,60.70
2023-01-05T09:21:06.157Z,59.90
2023-01-05T09:23:33.219Z,59.80
2023-01-05T09:25:59.844Z,59.70
2023-01-05T09:28:26.561Z,59.60
2023-01-05T09:30:53.219Z,59.70
2023-01-05T09:33:19.866Z,59.60
2023-01-05T09:35:56.413Z,59.50
2023-01-05T09:38:23.565Z,59.50
2023-01-05T09:40:51.287Z,59.70
2023-01-05T09:43:27.373Z,59.60
2023-01-05T09:45:54.099Z,59.50
2023-01-05T09:48:20.740Z,59.40
2023-01-05T09:50:48.321Z,59.60
2023-01-05T09:53:15.670Z,59.60
2023-01-05T09:55:42.584Z,59.60
2023-01-05T09:58:17.572Z,59.60
2023-01-05T10:00:45.953Z,59.60
2023-01-05T10:03:53.202Z,59.70
2023-01-05T10:06:16.069Z,59.60
2023-01-05T10:08:46.997Z,59.80
2023-01-05T10:12:02.029Z,59.70
2023-01-05T10:14:30.029Z,59.60
2023-01-05T10:17:30.184Z,59.80
2023-01-05T10:19:43.247Z,59.80
2023-01-05T10:22:26.856Z,59.90
2023-01-05T10:25:08.606Z,59.90
2023-01-05T10:27:42.037Z,59.70
2023-01-05T10:30:25.924Z,59.70
2023-01-05T10:33:25.506Z,59.70
2023-01-05T10:36:01.905Z,59.60
2023-01-05T10:38:55.148Z,59.30
2023-01-05T10:41:36.926Z,59.30
2023-01-05T10:44:50.345Z,58.60
2023-01-05T10:47:16.964Z,58.60
2023-01-05T10:49:45.106Z,59.00
2023-01-05T10:52:14.329Z,59.20
2023-01-05T10:54:44.532Z,60.40
2023-01-05T10:57:36.509Z,59.70
2023-01-05T11:00:12.527Z,59.90
2023-01-05T11:02:48.093Z,60.50
2023-01-05T11:05:19.078Z,60.20
2023-01-05T11:08:18.381Z,60.00
2023-01-05T11:10:53.132Z,60.10
2023-01-05T11:13:22.855Z,60.10
2023-01-05T11:15:57.358Z,60.10
2023-01-05T11:18:30.611Z,60.10
2023-01-05T11:21:07.892Z,60.30
2023-01-05T11:23:48.508Z,60.20
2023-01-05T11:26:18.089Z,60.00
2023-01-05T11:29:02.847Z,59.90
2023-01-05T11:31:35.437Z,59.90
2023-01-05T11:34:28.548Z,59.90
2023-01-05T11:37:08.362Z,60.00
2023-01-05T11:39:37.777Z,60.00
2023-01-05T11:42:17.438Z,60.00
2023-01-05T11:44:55.780Z,60.00
2023-01-05T11:47:45.863Z,60.10
2023-01-05T11:50:47.604Z,60.10
2023-01-05T11:53:31.842Z,60.10
2023-01-05T11:56:01.410Z,60.00
2023-01-05T11:58:44.190Z,60.00
2023-01-05T12:01:27.280Z,60.20
2023-01-05T12:04:08.123Z,60.20
2023-01-05T12:06:34.711Z,60.20
2023-01-05T12:09:06.865Z,60.30
2023-01-05T12:11:44.137Z,60.70
2023-01-05T12:14:30.480Z,60.50
2023-01-05T12:16:57.150Z,60.60
2023-01-05T12:19:33.634Z,60.40
2023-01-05T12:22:21.225Z,60.50
2023-01-05T12:25:06.555Z,60.40
2023-01-05T12:28:00.423Z,60.50
2023-01-05T12:34:05.042Z,60.50
2023-01-05T12:36:45.765Z,60.40
2023-01-05T12:39:35.623Z,60.40
2023-01-05T12:42:27.283Z,60.20
2023-01-05T12:45:03.085Z,60.20
2023-01-05T12:47:48.683Z,60.20
2023-01-05T12:50:38.687Z,60.20
2023-01-05T12:53:29.486Z,60.20
2023-01-05T12:55:57.355Z,59.90
2023-01-05T12:58:43.275Z,59.70
2023-01-05T13:01:25.774Z,59.90
2023-01-05T13:04:04.141Z,60.70
2023-01-05T13:06:35.434Z,60.70
2023-01-05T13:09:21.728Z,60.00
2023-01-05T13:12:08.038Z,60.00
2023-01-05T13:14:35.946Z,60.00
2023-01-05T13:17:23.144Z,60.00
2023-01-05T13:20:02.239Z,60.00
2023-01-05T13:22:34.162Z,60.10
2023-01-05T13:25:05.581Z,60.10
2023-01-05T13:27:32.728Z,60.10
2023-01-05T13:29:59.612Z,60.10
2023-01-05T13:32:53.847Z,60.50
2023-01-05T13:35:58.157Z,60.30
2023-01-05T13:38:59.874Z,60.50
2023-01-05T13:41:41.249Z,60.20
2023-01-05T13:44:20.522Z,60.30
2023-01-05T13:47:15.789Z,60.80
2023-01-05T13:49:59.192Z,60.70
2023-01-05T13:53:03.322Z,60.70
2023-01-05T13:55:29.929Z,60.80
2023-01-05T13:57:56.586Z,60.90
2023-01-05T14:00:30.845Z,60.80
2023-01-05T14:03:09.693Z,60.70
2023-01-05T14:05:59.655Z,61.30
2023-01-05T14:08:34.398Z,60.90
2023-01-05T14:11:14.458Z,60.90
2023-01-05T14:14:04.738Z,60.90
2023-01-05T14:16:34.834Z,60.90
2023-01-05T14:19:32.881Z,60.90
2023-01-05T14:22:23.645Z,60.90
2023-01-05T14:24:50.303Z,60.80
2023-01-05T14:27:21.153Z,60.90
2023-01-05T14:29:53.912Z,60.90
2023-01-05T14:32:26.167Z,60.90
2023-01-05T14:34:57.881Z,60.90
2023-01-05T14:37:39.966Z,61.00
2023-01-05T14:40:20.664Z,61.20
2023-01-05T14:42:47.689Z,61.40
2023-01-05T14:45:31.479Z,61.40
2023-01-05T14:47:59.674Z,61.40
2023-01-05T14:50:42.508Z,61.40
2023-01-05T14:53:22.047Z,61.50
2023-01-05T14:55:51.407Z,61.60
2023-01-05T14:58:38.212Z,61.60
2023-01-05T15:01:18.749Z,61.60
2023-01-05T15:04:07.963Z,61.60
2023-01-05T15:06:55.193Z,61.50
2023-01-05T15:09:48.398Z,61.70
2023-01-05T15:12:24.443Z,61.70
2023-01-05T15:15:16.319Z,61.80
2023-01-05T15:17:59.113Z,61.80
2023-01-05T15:20:44.407Z,62.10
2023-01-05T15:23:45.886Z,61.80
2023-01-05T15:26:47.084Z,61.70
2023-01-05T15:29:28.857Z,61.80
2023-01-05T15:31:57.528Z,61.70
2023-01-05T15:34:29.199Z,61.80
2023-01-05T15:37:05.300Z,61.80
2023-01-05T15:39:46.453Z,61.90
2023-01-05T15:42:19.617Z,61.80
2023-01-05T15:44:47.454Z,61.90
2023-01-05T15:47:14.058Z,61.90
2023-01-05T15:49:40.771Z,61.90
2023-01-05T15:52:20.661Z,61.80
2023-01-05T15:55:17.094Z,61.90
2023-01-05T15:57:51.299Z,62.30
2023-01-05T16:00:23.861Z,62.10
2023-01-05T16:02:50.768Z,62.00
2023-01-05T16:05:22.461Z,61.90
2023-01-05T16:07:54.291Z,61.90
2023-01-05T16:10:42.560Z,61.90
2023-01-05T16:13:15.595Z,61.80
2023-01-05T16:15:42.366Z,62.50
2023-01-05T16:18:13.285Z,61.80
2023-01-05T16:20:41.099Z,61.70
2023-01-05T16:23:12.189Z,61.80
2023-01-05T16:25:43.839Z,61.80
2023-01-05T16:28:17.736Z,61.70
2023-01-05T16:30:45.440Z,61.90
2023-01-05T16:33:34.939Z,61.90
2023-01-05T16:36:09.059Z,61.80
2023-01-05T16:38:35.866Z,61.80
2023-01-05T16:41:13.373Z,61.60
2023-01-05T16:43:39.913Z,61.50
2023-01-05T16:46:23.906Z,61.50
2023-01-05T16:48:53.270Z,61.40
2023-01-05T16:51:24.016Z,62.30
2023-01-05T16:53:54.808Z,61.40
2023-01-05T16:56:22.399Z,61.40
2023-01-05T16:58:49.213Z,61.30
2023-01-05T17:01:35.798Z,61.30
2023-01-05T17:04:12.642Z,61.30
2023-01-05T17:06:39.489Z,61.30
2023-01-05T17:09:20.201Z,61.20
2023-01-05T17:11:46.844Z,61.20
2023-01-05T17:14:13.691Z,61.20
2023-01-05T17:16:40.498Z,61.10
2023-01-05T17:19:14.281Z,61.20
2023-01-05T17:21:46.053Z,61.10
2023-01-05T17:24:13.011Z,61.10
2023-01-05T17:26:42.774Z,61.10
2023-01-05T17:29:22.143Z,61.10
2023-01-05T17:31:48.826Z,61.10
2023-01-05T17:34:15.626Z,61.00
2023-01-05T17:36:42.342Z,61.80
2023-01-05T17:39:10.903Z,61.00
2023-01-05T17:41:37.505Z,61.00
2023-01-05T17:44:04.163Z,61.00
2023-01-05T17:46:32.471Z,61.00
2023-01-05T17:49:00.490Z,61.00
2023-01-05T17:51:28.167Z,61.00
2023-01-05T17:53:58.242Z,61.00
2023-01-05T17:56:25.214Z,60.90
2023-01-05T17:58:51.916Z,60.90
2023-01-05T18:01:18.745Z,60.90
2023-01-05T18:03:45.374Z,60.90
2023-01-05T18:06:12.105Z,60.90
2023-01-05T18:08:38.716Z,60.90
2023-01-05T18:11:05.914Z,60.90
2023-01-05T18:13:33.205Z,60.90
2023-01-05T18:15:59.942Z,60.90
2023-01-05T18:18:27.785Z,60.90
2023-01-05T18:20:54.395Z,60.90
2023-01-05T18:23:21.016Z,60.90
2023-01-05T18:25:47.658Z,60.90
2023-01-05T18:28:14.309Z,60.90
2023-01-05T18:30:41.864Z,61.00
2023-01-05T18:33:08.496Z,61.00
2023-01-05T18:35:36.141Z,61.00
2023-01-05T18:38:04.973Z,60.90
2023-01-05T18:40:31.603Z,60.90
2023-01-05T18:42:58.212Z,61.00
2023-01-05T18:45:38.415Z,60.90
2023-01-05T18:48:05.841Z,60.90
2023-01-05T18:50:32.432Z,61.00
2023-01-05T18:52:59.034Z,61.00
2023-01-05T18:55:25.614Z,61.00
2023-01-05T18:57:52.240Z,61.00
2023-01-05T19:00:18.920Z,61.00
2023-01-05T19:02:45.523Z,61.10
2023-01-05T19:05:12.134Z,61.10
2023-01-05T19:07:39.750Z,61.00
2023-01-05T19:10:06.794Z,61.00
2023-01-05T19:12:33.427Z,61.00
2023-01-05T19:15:00.033Z,60.90
2023-01-05T19:17:26.634Z,60.90
2023-01-05T19:19:54.898Z,60.90
2023-01-05T19:22:21.518Z,60.90
2023-01-05T19:24:48.108Z,61.70
2023-01-05T19:27:14.718Z,60.90
2023-01-05T19:29:42.073Z,60.90
2023-01-05T19:32:08.712Z,60.90
2023-01-05T19:34:35.335Z,60.90
2023-01-05T19:37:05.442Z,60.90
2023-01-05T19:39:32.109Z,60.90
2023-01-05T19:41:58.746Z,60.90
2023-01-05T19:44:25.356Z,60.90
2023-01-05T19:46:53.273Z,60.90
2023-01-05T19:49:24.675Z,60.80
2023-01-05T19:51:51.352Z,60.80
2023-01-05T19:54:18.097Z,60.90
2023-01-05T19:56:44.833Z,60.90
2023-01-05T19:59:22.669Z,60.80
2023-01-05T20:01:49.309Z,60.80
2023-01-05T20:04:16.016Z,60.80
2023-01-05T20:06:44.320Z,60.80
2023-01-05T20:09:18.774Z,60.70
2023-01-05T20:11:48.753Z,60.70
2023-01-05T20:14:22.337Z,60.70
2023-01-05T20:16:55.838Z,60.60
2023-01-05T20:19:23.482Z,60.70
2023-01-05T20:21:50.635Z,60.60
2023-01-05T20:24:19.145Z,60.60
2023-01-05T20:26:46.170Z,60.60
2023-01-05T20:29:13.606Z,60.60
2023-01-05T20:31:45.632Z,60.60
2023-01-05T20:34:15.517Z,60.50
2023-01-05T20:36:42.152Z,60.50
2023-01-05T20:39:09.422Z,60.50
2023-01-05T20:41:38.663Z,60.60
2023-01-05T20:44:05.547Z,60.60
2023-01-05T20:46:34.674Z,60.60
2023-01-05T20:49:01.295Z,60.60
2023-01-05T20:51:27.914Z,60.60
2023-01-05T20:53:55.066Z,60.60
2023-01-05T20:56:23.825Z,60.60
2023-01-05T20:58:51.409Z,60.50
2023-01-05T21:01:18.141Z,60.40
2023-01-05T21:03:44.893Z,60.50
2023-01-05T21:06:12.852Z,60.60
2023-01-05T21:08:39.531Z,60.50
2023-01-05T21:11:06.611Z,60.50
2023-01-05T21:13:33.437Z,60.10
2023-01-05T21:16:04.781Z,60.10
2023-01-05T21:18:32.535Z,60.30
2023-01-05T21:20:59.244Z,60.30
2023-01-05T21:23:26.050Z,60.20
2023-01-05T21:26:06.665Z,60.30
2023-01-05T21:28:37.635Z,60.30
2023-01-05T21:31:09.175Z,60.30
2023-01-05T21:33:36.361Z,60.30
2023-01-05T21:36:06.669Z,60.40
2023-01-05T21:39:01.681Z,60.30
2023-01-05T21:41:40.157Z,60.40
2023-01-05T21:44:07.394Z,60.30
2023-01-05T21:46:34.595Z,60.30
2023-01-05T21:49:01.223Z,60.40
2023-01-05T21:51:46.306Z,60.40
2023-01-05T21:54:31.728Z,60.40
2023-01-05T21:56:58.878Z,60.40
2023-01-05T21:59:25.637Z,60.40
2023-01-05T22:01:52.236Z,60.50
2023-01-05T22:04:18.921Z,60.40
2023-01-05T22:06:45.516Z,60.40
2023-01-05T22:09:12.118Z,60.30
2023-01-05T22:11:38.877Z,60.40
2023-01-05T22:14:05.476Z,60.40
2023-01-05T22:16:32.117Z,60.40
2023-01-05T22:18:58.743Z,60.40
2023-01-05T22:21:25.368Z,60.50
2023-01-05T22:23:51.985Z,60.60
2023-01-05T22:26:19.474Z,60.50
2023-01-05T22:28:47.756Z,60.40
2023-01-05T22:31:19.458Z,60.50
2023-01-05T22:33:49.645Z,60.40
2023-01-05T22:36:17.079Z,60.40
2023-01-05T22:38:44.445Z,60.40
2023-01-05T22:41:12.271Z,60.40
2023-01-05T22:43:39.925Z,60.40
2023-01-05T22:46:08.491Z,60.40
2023-01-05T22:48:36.183Z,60.40
2023-01-05T22:51:13.571Z,60.40
2023-01-05T22:53:40.474Z,60.40
2023-01-05T22:56:09.111Z,60.40
2023-01-05T22:58:35.830Z,60.40
2023-01-05T23:01:29.591Z,60.40
2023-01-05T23:03:57.437Z,60.50
2023-01-05T23:06:24.155Z,60.40
2023-01-05T23:08:50.950Z,60.40
2023-01-05T23:11:31.916Z,60.40
2023-01-05T23:13:59.285Z,60.40
2023-01-05T23:16:26.023Z,60.40
2023-01-05T23:18:52.796Z,60.20
2023-01-05T23:21:20.497Z,60.00
2023-01-05T23:23:47.273Z,60.00
2023-01-05T23:26:14.633Z,60.00
2023-01-05T23:28:42.687Z,60.00
2023-01-05T23:31:11.418Z,60.00
2023-01-05T23:33:38.085Z,60.00
2023-01-05T23:36:05.202Z,60.00
2023-01-05T23:38:32.117Z,60.00
2023-01-05T23:41:00.140Z,60.00
2023-01-05T23:43:28.158Z,59.90
2023-01-05T23:46:04.280Z,60.00
2023-01-05T23:48:31.031Z,59.90
2023-01-05T23:50:58.030Z,59.90
2023-01-05T23:53:25.060Z,60.00
2023-01-05T23:55:51.723Z,60.00
2023-01-05T23:58:18.306Z,59.90
